Time;durP1;ratioP1;P1;durP2;ratioP2;P2;SDS_P1;SDS_P2;PMS_P1;PMS_P2;Temp;Humidity;BMP_temperature;BMP_pressure;BME280_temperature;BME280_humidity;BME280_pressure;Samples;Min_cycle;Max_cycle;Signal;HPM_P1;HPM_P2
2022/11/26 00:00:24;;;;;;;9.53;5.73;;;;;;;;;;5055913;28;20176;-87
2022/11/26 00:03:28;;;;;;;17.30;6.00;;;;;;;;;;5055690;28;20204;-87
2022/11/26 00:06:36;;;;;;;10.70;5.63;;;;;;;;;;5054839;28;20211;-87
2022/11/26 00:09:40;;;;;;;11.20;5.47;;;;;;;;;;5065991;28;20171;-86
2022/11/26 00:12:45;;;;;;;11.87;6.70;;;;;;;;;;5056066;28;20665;-86
2022/11/26 00:15:49;;;;;;;12.83;5.90;;;;;;;;;;5073330;28;20215;-87
2022/11/26 00:18:54;;;;;;;13.57;5.97;;;;;;;;;;5061262;28;20531;-87
2022/11/26 00:21:58;;;;;;;10.57;5.80;;;;;;;;;;5062225;28;20626;-87
2022/11/26 00:25:02;;;;;;;13.97;5.93;;;;;;;;;;5061777;28;20218;-88
2022/11/26 00:28:28;;;;;;;12.53;5.63;;;;;;;;;;5050176;28;20630;-87
2022/11/26 00:31:33;;;;;;;14.87;5.30;;;;;;;;;;5059961;28;20215;-87
2022/11/26 00:34:37;;;;;;;15.43;6.13;;;;;;;;;;5058308;28;20184;-87
2022/11/26 00:37:46;;;;;;;14.10;5.70;;;;;;;;;;5045744;28;20179;-87
2022/11/26 00:40:50;;;;;;;14.83;5.97;;;;;;;;;;5045295;28;20183;-87
2022/11/26 00:43:54;;;;;;;13.73;5.70;;;;;;;;;;5055507;28;20199;-87
2022/11/26 00:46:58;;;;;;;14.83;5.37;;;;;;;;;;5044354;28;20219;-87
2022/11/26 00:50:03;;;;;;;12.90;4.87;;;;;;;;;;5043450;28;20172;-87
2022/11/26 00:53:13;;;;;;;15.00;6.00;;;;;;;;;;5054622;28;20179;-87
2022/11/26 00:56:20;;;;;;;10.93;5.23;;;;;;;;;;5054209;28;20215;-87
2022/11/26 00:59:24;;;;;;;8.13;5.13;;;;;;;;;;5053938;28;20179;-87
2022/11/26 01:02:28;;;;;;;12.27;5.23;;;;;;;;;;5042725;28;20183;-87
2022/11/26 01:05:33;;;;;;;14.80;5.60;;;;;;;;;;5053387;28;20214;-87
2022/11/26 01:08:37;;;;;;;12.20;5.30;;;;;;;;;;5052853;28;20171;-87
2022/11/26 01:11:41;;;;;;;13.73;5.17;;;;;;;;;;5052945;28;20203;-87
2022/11/26 01:14:45;;;;;;;9.30;4.97;;;;;;;;;;5052299;28;20630;-87
2022/11/26 01:17:50;;;;;;;9.37;4.53;;;;;;;;;;5052343;28;20185;-86
2022/11/26 01:20:54;;;;;;;13.17;5.50;;;;;;;;;;5040666;28;20171;-87
2022/11/26 01:23:59;;;;;;;9.73;4.20;;;;;;;;;;5052153;28;20528;-87
2022/11/26 01:27:09;;;;;;;11.63;4.70;;;;;;;;;;5040706;28;20677;-87
2022/11/26 01:30:18;;;;;;;18.13;4.80;;;;;;;;;;5051375;28;20626;-87
2022/11/26 01:33:22;;;;;;;6.97;3.70;;;;;;;;;;5050890;28;20183;-87
2022/11/26 01:36:29;;;;;;;10.30;3.83;;;;;;;;;;5039898;28;20581;-87
2022/11/26 01:39:33;;;;;;;11.57;5.30;;;;;;;;;;5040547;28;20187;-87
2022/11/26 01:42:42;;;;;;;10.17;4.17;;;;;;;;;;5051689;28;20164;-87
2022/11/26 01:45:46;;;;;;;10.50;3.73;;;;;;;;;;5040356;28;20215;-88
2022/11/26 01:48:51;;;;;;;11.17;3.80;;;;;;;;;;5040481;28;20657;-87
2022/11/26 01:52:22;;;;;;;10.53;4.03;;;;;;;;;;5052388;28;20223;-87
2022/11/26 01:55:34;;;;;;;7.37;3.63;;;;;;;;;;5041547;28;20219;-87
2022/11/26 01:58:46;;;;;;;10.63;3.40;;;;;;;;;;5052973;28;20191;-87
2022/11/26 02:01:54;;;;;;;7.97;3.63;;;;;;;;;;5040625;28;20176;-87
2022/11/26 02:05:16;;;;;;;9.43;3.73;;;;;;;;;;5040709;28;20215;-87
2022/11/26 02:08:23;;;;;;;10.63;3.53;;;;;;;;;;5041610;28;20180;-87
2022/11/26 02:11:28;;;;;;;11.40;3.57;;;;;;;;;;5053603;28;20203;-87
2022/11/26 02:14:39;;;;;;;8.27;3.60;;;;;;;;;;5064248;28;20508;-87
2022/11/26 02:17:50;;;;;;;10.23;3.50;;;;;;;;;;5052553;28;20183;-87
2022/11/26 02:21:02;;;;;;;10.03;3.00;;;;;;;;;;5052232;28;20623;-88
2022/11/26 02:24:24;;;;;;;9.50;3.70;;;;;;;;;;5040070;28;20196;-87
2022/11/26 02:27:42;;;;;;;14.20;3.40;;;;;;;;;;5051911;28;20642;-86
2022/11/26 02:31:01;;;;;;;10.80;3.43;;;;;;;;;;5040806;28;20615;-86
2022/11/26 02:34:28;;;;;;;10.87;3.70;;;;;;;;;;5040707;28;20172;-86
2022/11/26 02:37:48;;;;;;;12.10;3.53;;;;;;;;;;5051747;28;20184;-88
2022/11/26 02:40:52;;;;;;;19.20;3.70;;;;;;;;;;5041041;28;20176;-87
2022/11/26 02:43:57;;;;;;;8.50;3.30;;;;;;;;;;5042314;28;20167;-86
2022/11/26 02:47:09;;;;;;;8.10;3.47;;;;;;;;;;5055955;28;20658;-87
2022/11/26 02:50:28;;;;;;;8.53;3.63;;;;;;;;;;5044512;28;20191;-89
2022/11/26 02:53:34;;;;;;;10.93;3.23;;;;;;;;;;5043460;28;20204;-88
2022/11/26 02:56:39;;;;;;;10.70;3.77;;;;;;;;;;5043100;28;20566;-86
2022/11/26 02:59:43;;;;;;;8.93;3.60;;;;;;;;;;5054629;28;20195;-86
2022/11/26 03:03:00;;;;;;;6.53;3.50;;;;;;;;;;5054273;28;20172;-86
2022/11/26 03:06:08;;;;;;;8.33;3.40;;;;;;;;;;5043101;28;20561;-86
2022/11/26 03:09:15;;;;;;;9.87;3.40;;;;;;;;;;5042719;28;20199;-86
2022/11/26 03:12:20;;;;;;;10.03;3.33;;;;;;;;;;5042640;28;20203;-86
2022/11/26 03:15:24;;;;;;;9.67;3.47;;;;;;;;;;5066183;28;20211;-87
2022/11/26 03:18:29;;;;;;;9.83;3.67;;;;;;;;;;5055288;28;20176;-86
2022/11/26 03:21:33;;;;;;;11.83;4.07;;;;;;;;;;5054977;28;20187;-87
2022/11/26 03:24:38;;;;;;;10.33;3.67;;;;;;;;;;5043081;28;20171;-86
2022/11/26 03:27:42;;;;;;;10.30;4.40;;;;;;;;;;5054489;28;20184;-86
2022/11/26 03:30:48;;;;;;;10.67;3.90;;;;;;;;;;5043667;28;20187;-86
2022/11/26 03:33:52;;;;;;;17.73;4.43;;;;;;;;;;5065565;28;20180;-86
2022/11/26 03:36:56;;;;;;;9.67;3.93;;;;;;;;;;5054095;28;20219;-87
2022/11/26 03:40:01;;;;;;;14.77;4.60;;;;;;;;;;5065457;28;20179;-88
2022/11/26 03:43:05;;;;;;;12.33;4.37;;;;;;;;;;5054522;28;20172;-87
2022/11/26 03:46:09;;;;;;;10.93;4.23;;;;;;;;;;5043445;28;20215;-86
2022/11/26 03:49:13;;;;;;;9.60;3.80;;;;;;;;;;5044155;28;20184;-86
2022/11/26 03:52:18;;;;;;;10.73;4.30;;;;;;;;;;5043484;28;20226;-88
2022/11/26 03:55:22;;;;;;;11.03;4.10;;;;;;;;;;5033906;28;20220;-88
2022/11/26 03:58:26;;;;;;;13.87;4.30;;;;;;;;;;5023927;28;20516;-88
2022/11/26 04:01:31;;;;;;;12.20;3.90;;;;;;;;;;5034507;28;20200;-86
2022/11/26 04:04:35;;;;;;;13.23;4.33;;;;;;;;;;5046235;28;20196;-88
2022/11/26 04:07:39;;;;;;;10.90;3.90;;;;;;;;;;5024096;28;20172;-88
2022/11/26 04:10:43;;;;;;;11.53;4.30;;;;;;;;;;5023627;28;20180;-88
2022/11/26 04:13:47;;;;;;;16.00;4.30;;;;;;;;;;5023897;28;20658;-87
2022/11/26 04:16:52;;;;;;;15.17;4.90;;;;;;;;;;5034920;28;20220;-89
2022/11/26 04:19:56;;;;;;;11.67;4.27;;;;;;;;;;5035542;28;20176;-89
2022/11/26 04:23:00;;;;;;;10.60;4.60;;;;;;;;;;5042980;28;20171;-86
2022/11/26 04:26:04;;;;;;;11.73;4.40;;;;;;;;;;5053259;28;20223;-88
2022/11/26 04:29:08;;;;;;;8.57;3.97;;;;;;;;;;5042988;28;20175;-88
2022/11/26 04:32:12;;;;;;;8.43;3.77;;;;;;;;;;5042476;28;20274;-88
2022/11/26 04:35:17;;;;;;;13.97;4.23;;;;;;;;;;5042304;28;20582;-87
2022/11/26 04:38:21;;;;;;;12.77;4.47;;;;;;;;;;5052750;28;20183;-87
2022/11/26 04:41:25;;;;;;;10.97;4.23;;;;;;;;;;5042112;28;20175;-87
2022/11/26 04:44:29;;;;;;;12.17;4.50;;;;;;;;;;5042397;28;20510;-87
2022/11/26 04:47:34;;;;;;;14.67;4.20;;;;;;;;;;5052326;28;20176;-87
2022/11/26 04:50:38;;;;;;;13.93;3.80;;;;;;;;;;5042163;28;20175;-88
2022/11/26 04:53:42;;;;;;;9.13;4.17;;;;;;;;;;5053057;28;20212;-88
2022/11/26 04:56:47;;;;;;;10.70;4.40;;;;;;;;;;5053700;28;20215;-88
2022/11/26 04:59:51;;;;;;;12.40;4.23;;;;;;;;;;5041967;28;20184;-88
2022/11/26 05:02:55;;;;;;;13.20;4.37;;;;;;;;;;5042345;28;20175;-88
2022/11/26 05:06:00;;;;;;;9.87;3.80;;;;;;;;;;5052723;28;20218;-87
2022/11/26 05:09:04;;;;;;;12.23;4.27;;;;;;;;;;5040652;28;20179;-88
2022/11/26 05:12:10;;;;;;;11.13;4.17;;;;;;;;;;5063883;28;20622;-87
2022/11/26 05:15:14;;;;;;;11.97;4.13;;;;;;;;;;5041157;28;20215;-87
2022/11/26 05:18:18;;;;;;;15.43;4.13;;;;;;;;;;5052399;28;20175;-87
2022/11/26 05:21:22;;;;;;;14.47;3.90;;;;;;;;;;5040590;28;20188;-87
2022/11/26 05:24:26;;;;;;;13.40;4.67;;;;;;;;;;5041136;28;20175;-87
2022/11/26 05:27:31;;;;;;;13.30;4.57;;;;;;;;;;5021826;23;20233;-85
2022/11/26 05:30:38;;;;;;;9.63;4.40;;;;;;;;;;4981878;28;20640;-85
2022/11/26 05:33:45;;;;;;;16.13;6.40;;;;;;;;;;4993201;28;20569;-85
2022/11/26 05:36:52;;;;;;;16.03;6.63;;;;;;;;;;4982580;28;20304;-85
2022/11/26 05:39:56;;;;;;;13.80;6.07;;;;;;;;;;4982001;28;20182;-85
2022/11/26 05:43:00;;;;;;;16.27;4.97;;;;;;;;;;4971071;28;20178;-85
2022/11/26 05:46:06;;;;;;;12.43;5.30;;;;;;;;;;4982463;28;20178;-85
2022/11/26 05:49:10;;;;;;;12.93;6.23;;;;;;;;;;4993884;28;20506;-85
2022/11/26 05:52:14;;;;;;;11.07;5.80;;;;;;;;;;4993720;28;20652;-85
2022/11/26 05:55:19;;;;;;;12.73;4.57;;;;;;;;;;4971582;28;20193;-85
2022/11/26 05:58:24;;;;;;;12.10;5.20;;;;;;;;;;4993128;28;20182;-84
2022/11/26 06:01:30;;;;;;;14.97;4.73;;;;;;;;;;4982220;28;20178;-84
2022/11/26 06:04:33;;;;;;;9.50;4.67;;;;;;;;;;4993590;28;20178;-84
2022/11/26 06:07:38;;;;;;;11.20;4.77;;;;;;;;;;4982514;28;20213;-85
2022/11/26 06:10:42;;;;;;;11.47;4.97;;;;;;;;;;4971515;28;20174;-85
2022/11/26 06:13:47;;;;;;;14.47;5.30;;;;;;;;;;4993917;28;20211;-84
2022/11/26 06:16:51;;;;;;;11.33;5.43;;;;;;;;;;4970712;28;20225;-86
2022/11/26 06:19:55;;;;;;;13.10;4.87;;;;;;;;;;4986644;28;20201;-87
2022/11/26 06:22:59;;;;;;;10.03;4.40;;;;;;;;;;4986388;28;20182;-87
2022/11/26 06:26:11;;;;;;;7.80;4.67;;;;;;;;;;4986503;28;20178;-87
2022/11/26 06:29:26;;;;;;;8.90;4.87;;;;;;;;;;4975519;28;20518;-87
2022/11/26 06:38:17;;;;;;;13.33;7.87;;;;;;;;;;4999804;28;20696;-87
2022/11/26 06:43:04;;;;;;;14.20;8.03;;;;;;;;;;4998526;28;20182;-87
2022/11/26 06:53:06;;;;;;;11.87;5.70;;;;;;;;;;4956906;29;20675;-87
2022/11/26 07:03:23;;;;;;;16.87;6.87;;;;;;;;;;4844739;29;20215;-87
2022/11/26 07:07:43;;;;;;;12.30;4.70;;;;;;;;;;4910091;29;20225;-88
2022/11/26 07:16:32;;;;;;;11.17;4.83;;;;;;;;;;4904579;22;20233;-80
2022/11/26 07:19:36;;;;;;;9.10;4.80;;;;;;;;;;5015274;28;20185;-80
2022/11/26 07:22:40;;;;;;;10.80;6.13;;;;;;;;;;4995281;28;20178;-80
2022/11/26 07:25:44;;;;;;;11.63;6.13;;;;;;;;;;4994912;28;20185;-80
2022/11/26 07:28:49;;;;;;;12.93;5.43;;;;;;;;;;5006288;28;20174;-80
2022/11/26 07:31:53;;;;;;;12.37;5.13;;;;;;;;;;4995060;28;20217;-80
2022/11/26 07:34:57;;;;;;;15.60;6.20;;;;;;;;;;5019384;28;20205;-80
2022/11/26 07:38:01;;;;;;;8.87;4.93;;;;;;;;;;4986236;28;20636;-80
2022/11/26 07:41:09;;;;;;;7.80;5.23;;;;;;;;;;5009878;28;20217;-80
2022/11/26 07:44:15;;;;;;;12.47;5.40;;;;;;;;;;4988393;28;20174;-81
2022/11/26 07:47:19;;;;;;;12.60;6.67;;;;;;;;;;5021716;28;20664;-80
2022/11/26 07:50:24;;;;;;;16.23;7.07;;;;;;;;;;5009170;28;20205;-80
2022/11/26 07:53:33;;;;;;;15.50;6.13;;;;;;;;;;4986958;28;20201;-80
2022/11/26 07:56:37;;;;;;;16.13;7.37;;;;;;;;;;5009436;28;20186;-80
2022/11/26 07:59:41;;;;;;;8.47;6.50;;;;;;;;;;4997900;28;20181;-80
2022/11/26 08:02:45;;;;;;;11.83;6.50;;;;;;;;;;5008898;28;20201;-80
2022/11/26 08:05:49;;;;;;;12.00;5.73;;;;;;;;;;5010001;28;20200;-80
2022/11/26 08:08:54;;;;;;;15.00;5.20;;;;;;;;;;5020993;28;20173;-80
2022/11/26 08:11:58;;;;;;;9.17;5.30;;;;;;;;;;5021843;28;20217;-80
2022/11/26 08:15:02;;;;;;;8.07;6.10;;;;;;;;;;4997768;28;20207;-80
2022/11/26 08:18:07;;;;;;;16.63;6.10;;;;;;;;;;4987417;28;20213;-81
2022/11/26 08:21:12;;;;;;;11.63;5.60;;;;;;;;;;5010000;28;20221;-80
2022/11/26 08:24:18;;;;;;;11.27;5.97;;;;;;;;;;4986803;28;20498;-80
2022/11/26 08:27:22;;;;;;;16.73;6.60;;;;;;;;;;4987420;28;20177;-80
2022/11/26 08:30:26;;;;;;;11.30;6.20;;;;;;;;;;4987065;28;20186;-80
2022/11/26 08:33:32;;;;;;;11.77;6.73;;;;;;;;;;4997281;28;20553;-81
2022/11/26 08:36:36;;;;;;;17.00;7.37;;;;;;;;;;4997184;28;20185;-80
2022/11/26 08:39:40;;;;;;;15.83;7.30;;;;;;;;;;5006986;28;20201;-80
2022/11/26 08:42:45;;;;;;;14.50;6.50;;;;;;;;;;4996305;28;20190;-80
2022/11/26 08:45:58;;;;;;;17.60;7.37;;;;;;;;;;5019302;28;20178;-80
2022/11/26 08:49:03;;;;;;;11.50;6.77;;;;;;;;;;5007660;28;20186;-80
2022/11/26 08:52:08;;;;;;;12.67;6.50;;;;;;;;;;4996131;28;20221;-80
2022/11/26 08:55:12;;;;;;;13.53;6.93;;;;;;;;;;4997814;28;20205;-80
2022/11/26 08:58:16;;;;;;;13.93;7.23;;;;;;;;;;4989044;28;20185;-80
2022/11/26 09:01:26;;;;;;;12.03;6.60;;;;;;;;;;4989761;28;20559;-80
2022/11/26 09:04:30;;;;;;;11.77;6.10;;;;;;;;;;5011699;28;20169;-80
2022/11/26 09:07:34;;;;;;;17.00;6.87;;;;;;;;;;5012619;28;20299;-80
2022/11/26 09:10:39;;;;;;;13.73;6.33;;;;;;;;;;4995701;28;20217;-80
2022/11/26 09:13:43;;;;;;;16.43;6.80;;;;;;;;;;4985652;28;20221;-80
2022/11/26 09:16:47;;;;;;;12.17;6.10;;;;;;;;;;5007796;28;20213;-80
2022/11/26 09:19:51;;;;;;;13.80;6.23;;;;;;;;;;5008917;28;20193;-80
2022/11/26 09:22:55;;;;;;;10.40;6.00;;;;;;;;;;5009959;28;20185;-80
2022/11/26 09:26:00;;;;;;;12.70;5.90;;;;;;;;;;4998196;28;20178;-80
2022/11/26 09:29:04;;;;;;;12.93;5.70;;;;;;;;;;4986689;28;20201;-80
2022/11/26 09:32:08;;;;;;;9.07;5.70;;;;;;;;;;5008572;28;20217;-80
2022/11/26 09:35:13;;;;;;;14.33;6.50;;;;;;;;;;4986437;28;20568;-80
2022/11/26 09:38:16;;;;;;;12.37;6.33;;;;;;;;;;4997292;28;20186;-80
2022/11/26 09:41:46;;;;;;;15.07;7.00;;;;;;;;;;5008766;28;20213;-80
2022/11/26 09:45:01;;;;;;;14.07;6.67;;;;;;;;;;4997581;28;20181;-80
2022/11/26 09:48:14;;;;;;;17.87;7.13;;;;;;;;;;5008680;28;20205;-80
2022/11/26 09:51:19;;;;;;;10.77;5.90;;;;;;;;;;5008520;28;20217;-80
2022/11/26 09:54:27;;;;;;;13.47;6.63;;;;;;;;;;4996257;28;20201;-80
2022/11/26 09:57:53;;;;;;;13.67;6.57;;;;;;;;;;4995430;28;20181;-81
2022/11/26 10:00:58;;;;;;;12.47;6.23;;;;;;;;;;5004298;28;20221;-82
2022/11/26 10:04:06;;;;;;;14.23;6.40;;;;;;;;;;5004625;28;20174;-82
2022/11/26 10:07:32;;;;;;;12.10;5.80;;;;;;;;;;4993208;28;20182;-81
2022/11/26 10:10:56;;;;;;;13.53;4.57;;;;;;;;;;5004426;28;20221;-81
2022/11/26 10:14:30;;;;;;;12.40;5.40;;;;;;;;;;5000603;28;20213;-81
2022/11/26 10:17:49;;;;;;;11.50;4.77;;;;;;;;;;4987307;28;20593;-81
2022/11/26 10:21:13;;;;;;;11.73;5.10;;;;;;;;;;4994885;28;20217;-81
2022/11/26 10:24:26;;;;;;;9.33;4.77;;;;;;;;;;4994784;28;20178;-81
2022/11/26 10:27:33;;;;;;;9.60;4.77;;;;;;;;;;4978375;28;20202;-82
2022/11/26 10:30:37;;;;;;;23.53;5.37;;;;;;;;;;4973322;28;20218;-82
2022/11/26 10:34:02;;;;;;;12.43;5.70;;;;;;;;;;4980321;28;20530;-80
2022/11/26 10:37:07;;;;;;;14.80;10.87;;;;;;;;;;4994113;28;20187;-79
2022/11/26 10:40:17;;;;;;;11.03;5.87;;;;;;;;;;5004553;28;20189;-78
2022/11/26 10:43:23;;;;;;;12.80;5.30;;;;;;;;;;5002026;28;20182;-78
2022/11/26 10:46:33;;;;;;;10.10;5.13;;;;;;;;;;5007996;28;20177;-78
2022/11/26 10:49:38;;;;;;;10.47;5.23;;;;;;;;;;4989314;28;20206;-78
2022/11/26 10:52:43;;;;;;;7.70;4.50;;;;;;;;;;4966718;28;20179;-78
2022/11/26 10:55:50;;;;;;;9.67;4.80;;;;;;;;;;4989607;28;20545;-78
2022/11/26 10:59:00;;;;;;;11.07;4.77;;;;;;;;;;5004258;28;20187;-78
2022/11/26 11:02:15;;;;;;;9.97;4.77;;;;;;;;;;4980237;28;20230;-79
2022/11/26 11:05:20;;;;;;;7.47;5.30;;;;;;;;;;4984192;28;20545;-79
2022/11/26 11:08:30;;;;;;;14.67;6.97;;;;;;;;;;4974376;28;20183;-79
2022/11/26 11:11:34;;;;;;;38.63;28.73;;;;;;;;;;4985745;28;20222;-79
2022/11/26 11:14:39;;;;;;;10.87;5.90;;;;;;;;;;4995989;28;20205;-79
2022/11/26 11:17:46;;;;;;;11.20;6.60;;;;;;;;;;4997093;28;20213;-80
2022/11/26 11:20:55;;;;;;;12.07;5.40;;;;;;;;;;5009397;28;20209;-80
2022/11/26 11:24:09;;;;;;;12.13;7.13;;;;;;;;;;4986060;28;20182;-80
2022/11/26 11:27:24;;;;;;;10.93;6.33;;;;;;;;;;5014767;22;20236;-87
2022/11/26 11:30:31;;;;;;;7.50;4.50;;;;;;;;;;4983004;28;20174;-88
2022/11/26 11:33:35;;;;;;;8.63;4.53;;;;;;;;;;4982691;28;20178;-88
2022/11/26 11:36:40;;;;;;;10.83;4.90;;;;;;;;;;4983160;28;20189;-88
2022/11/26 11:39:44;;;;;;;11.87;4.77;;;;;;;;;;4983015;28;20181;-89
2022/11/26 11:42:50;;;;;;;11.07;4.70;;;;;;;;;;4983787;28;20197;-88
2022/11/26 11:45:58;;;;;;;6.47;3.27;;;;;;;;;;4983579;28;20177;-88
2022/11/26 11:49:41;;;;;;;10.53;4.70;;;;;;;;;;4983215;28;20186;-88
2022/11/26 11:53:06;;;;;;;6.63;3.77;;;;;;;;;;4982939;28;20546;-88
2022/11/26 11:56:23;;;;;;;6.20;3.57;;;;;;;;;;4984416;28;20210;-88
2022/11/26 12:00:09;;;;;;;9.43;4.10;;;;;;;;;;4994094;28;20178;-88
2022/11/26 12:03:34;;;;;;;7.63;4.00;;;;;;;;;;4994103;28;20182;-88
2022/11/26 12:06:51;;;;;;;7.47;3.70;;;;;;;;;;4993938;28;20193;-89
2022/11/26 12:10:31;;;;;;;8.40;3.60;;;;;;;;;;4993783;28;20182;-90
2022/11/26 12:13:44;;;;;;;8.13;3.83;;;;;;;;;;4999384;28;20182;-90
2022/11/26 12:16:53;;;;;;;11.30;4.30;;;;;;;;;;4996993;28;20213;-90
2022/11/26 12:20:04;;;;;;;5.83;3.97;;;;;;;;;;5012346;28;20189;-89
2022/11/26 12:23:24;;;;;;;8.93;3.70;;;;;;;;;;5012739;28;20181;-89
2022/11/26 12:26:31;;;;;;;9.20;4.50;;;;;;;;;;5012611;28;20181;-89
2022/11/26 12:29:40;;;;;;;8.07;4.30;;;;;;;;;;5001197;28;20521;-89
2022/11/26 12:32:56;;;;;;;12.47;5.33;;;;;;;;;;5023483;28;20181;-90
2022/11/26 12:36:11;;;;;;;13.80;5.87;;;;;;;;;;5000839;28;20208;-89
2022/11/26 12:39:27;;;;;;;7.60;4.87;;;;;;;;;;5012342;28;20539;-89
2022/11/26 12:42:58;;;;;;;9.47;5.07;;;;;;;;;;5001111;28;20185;-90
2022/11/26 12:46:14;;;;;;;10.20;5.37;;;;;;;;;;4977406;28;20658;-90
2022/11/26 12:49:43;;;;;;;9.83;5.17;;;;;;;;;;5002422;28;20192;-91
2022/11/26 12:53:00;;;;;;;10.70;5.20;;;;;;;;;;5000878;28;20532;-87
2022/11/26 12:56:12;;;;;;;8.50;4.67;;;;;;;;;;5011687;28;20221;-87
2022/11/26 12:59:20;;;;;;;13.63;5.10;;;;;;;;;;5011702;28;20184;-87
2022/11/26 13:02:29;;;;;;;11.33;5.17;;;;;;;;;;5012172;28;20181;-87
2022/11/26 13:05:48;;;;;;;13.53;5.17;;;;;;;;;;5012522;28;20181;-88
2022/11/26 13:09:07;;;;;;;9.33;5.33;;;;;;;;;;5012818;28;20201;-87
2022/11/26 13:12:15;;;;;;;10.30;6.20;;;;;;;;;;5000494;28;20660;-88
2022/11/26 13:15:37;;;;;;;10.10;5.77;;;;;;;;;;5000919;28;20572;-88
2022/11/26 13:18:47;;;;;;;11.07;6.03;;;;;;;;;;5014316;28;20216;-88
2022/11/26 13:22:07;;;;;;;12.57;6.23;;;;;;;;;;5012826;28;20184;-88
2022/11/26 13:25:36;;;;;;;7.83;5.67;;;;;;;;;;5001052;28;20181;-88
2022/11/26 13:28:49;;;;;;;13.43;6.30;;;;;;;;;;5000877;28;20224;-88
2022/11/26 13:32:24;;;;;;;12.67;6.00;;;;;;;;;;5002082;28;20667;-88
2022/11/26 13:35:56;;;;;;;12.43;6.00;;;;;;;;;;4999822;28;20205;-88
2022/11/26 13:39:14;;;;;;;11.57;6.30;;;;;;;;;;5000464;28;20177;-88
2022/11/26 13:43:06;;;;;;;8.90;5.83;;;;;;;;;;5011278;28;20185;-88
2022/11/26 13:46:33;;;;;;;11.43;5.47;;;;;;;;;;4955982;28;20189;-88
2022/11/26 13:49:49;;;;;;;9.07;5.63;;;;;;;;;;5022992;28;20181;-87
2022/11/26 13:52:54;;;;;;;8.90;5.80;;;;;;;;;;5022616;28;20185;-87
2022/11/26 13:56:01;;;;;;;10.47;5.20;;;;;;;;;;5000321;28;20200;-87
2022/11/26 13:59:14;;;;;;;10.97;5.70;;;;;;;;;;5011567;28;20181;-88
2022/11/26 14:02:31;;;;;;;11.13;6.97;;;;;;;;;;5000231;28;20185;-88
2022/11/26 14:05:47;;;;;;;10.73;6.03;;;;;;;;;;4997402;28;20205;-87
2022/11/26 14:08:52;;;;;;;6.03;4.43;;;;;;;;;;5000658;28;20176;-88
2022/11/26 14:11:57;;;;;;;10.77;6.07;;;;;;;;;;5000644;28;20172;-87
2022/11/26 14:15:01;;;;;;;12.30;6.27;;;;;;;;;;5010699;28;20541;-88
2022/11/26 14:18:08;;;;;;;12.30;6.87;;;;;;;;;;5021273;28;20221;-87
2022/11/26 14:21:13;;;;;;;13.03;7.20;;;;;;;;;;4999319;28;20180;-87
2022/11/26 14:24:58;;;;;;;13.97;7.70;;;;;;;;;;5010659;28;20185;-87
2022/11/26 14:28:08;;;;;;;10.90;7.70;;;;;;;;;;5001128;28;20232;-88
2022/11/26 14:31:29;;;;;;;12.53;5.80;;;;;;;;;;4999108;28;20185;-87
2022/11/26 14:34:42;;;;;;;10.30;6.50;;;;;;;;;;4999010;28;20189;-87
2022/11/26 14:37:51;;;;;;;9.70;6.53;;;;;;;;;;5009939;28;20568;-87
2022/11/26 14:40:58;;;;;;;13.43;6.17;;;;;;;;;;5014206;28;20544;-88
2022/11/26 14:44:07;;;;;;;9.83;6.47;;;;;;;;;;5002565;28;20664;-87
2022/11/26 14:47:20;;;;;;;8.47;5.97;;;;;;;;;;5002746;28;20213;-87
2022/11/26 14:50:24;;;;;;;12.17;5.93;;;;;;;;;;5002992;28;20184;-88
2022/11/26 14:53:30;;;;;;;10.60;5.97;;;;;;;;;;5004243;28;20200;-87
2022/11/26 14:56:38;;;;;;;10.47;5.97;;;;;;;;;;5013751;28;20695;-87
2022/11/26 15:00:24;;;;;;;11.13;6.10;;;;;;;;;;5002647;28;20176;-87
2022/11/26 15:03:28;;;;;;;10.30;6.17;;;;;;;;;;4936424;28;20601;-88
2022/11/26 15:06:38;;;;;;;13.23;6.53;;;;;;;;;;5015227;28;20181;-87
2022/11/26 15:09:42;;;;;;;10.47;6.13;;;;;;;;;;5014989;28;20624;-87
2022/11/26 15:12:49;;;;;;;14.90;5.87;;;;;;;;;;5003103;28;20176;-87
2022/11/26 15:15:58;;;;;;;14.53;5.80;;;;;;;;;;5025960;28;20225;-87
2022/11/26 15:19:05;;;;;;;10.93;6.70;;;;;;;;;;5014944;28;20181;-87
2022/11/26 15:22:36;;;;;;;10.83;7.00;;;;;;;;;;5003326;28;20184;-87
2022/11/26 15:25:47;;;;;;;9.90;5.93;;;;;;;;;;5025444;28;20173;-87
2022/11/26 15:28:51;;;;;;;11.57;6.23;;;;;;;;;;5002727;28;20197;-88
2022/11/26 15:31:55;;;;;;;9.57;5.73;;;;;;;;;;5011275;28;20196;-87
2022/11/26 15:35:02;;;;;;;8.80;5.17;;;;;;;;;;5002419;28;20177;-87
2022/11/26 15:38:15;;;;;;;10.77;6.10;;;;;;;;;;5003518;28;20217;-88
2022/11/26 15:41:19;;;;;;;6.83;4.87;;;;;;;;;;5002596;28;20177;-87
2022/11/26 15:44:25;;;;;;;7.90;5.13;;;;;;;;;;5003078;28;20520;-91
2022/11/26 15:47:30;;;;;;;8.30;5.00;;;;;;;;;;5012875;28;20220;-89
2022/11/26 15:50:35;;;;;;;8.97;5.67;;;;;;;;;;5000726;28;20184;-88
2022/11/26 15:53:46;;;;;;;9.67;5.40;;;;;;;;;;5011578;28;20173;-86
2022/11/26 15:56:54;;;;;;;11.90;5.23;;;;;;;;;;5017215;22;20689;-79
2022/11/26 16:00:03;;;;;;;8.93;4.67;;;;;;;;;;5016052;28;20185;-80
2022/11/26 16:03:33;;;;;;;7.57;4.83;;;;;;;;;;5007726;28;20190;-80
2022/11/26 16:06:39;;;;;;;10.40;5.60;;;;;;;;;;5007476;28;20633;-79
2022/11/26 16:09:45;;;;;;;14.67;5.50;;;;;;;;;;5007545;28;20185;-79
2022/11/26 16:13:07;;;;;;;9.33;4.93;;;;;;;;;;4996945;28;20190;-79
2022/11/26 16:16:16;;;;;;;8.90;5.30;;;;;;;;;;4996227;28;20205;-79
2022/11/26 16:19:26;;;;;;;13.07;5.63;;;;;;;;;;4995818;28;20182;-79
2022/11/26 16:22:32;;;;;;;7.43;4.97;;;;;;;;;;4985129;28;20213;-79
2022/11/26 16:25:36;;;;;;;12.00;6.00;;;;;;;;;;4985065;28;20174;-80
2022/11/26 16:28:42;;;;;;;12.13;5.83;;;;;;;;;;4995593;28;20178;-80
2022/11/26 16:31:46;;;;;;;13.20;6.00;;;;;;;;;;5005781;28;20545;-79
2022/11/26 16:34:50;;;;;;;10.20;6.10;;;;;;;;;;4983646;28;20190;-79
2022/11/26 16:37:54;;;;;;;10.83;5.50;;;;;;;;;;4983652;28;20177;-78
2022/11/26 16:40:58;;;;;;;10.07;5.63;;;;;;;;;;5005372;28;20224;-80
2022/11/26 16:44:02;;;;;;;9.57;5.80;;;;;;;;;;4994904;28;20181;-80
2022/11/26 16:47:25;;;;;;;12.17;6.43;;;;;;;;;;5005695;28;20174;-79
2022/11/26 16:50:29;;;;;;;11.33;6.20;;;;;;;;;;4994587;28;20186;-79
2022/11/26 16:53:33;;;;;;;13.50;7.13;;;;;;;;;;4983337;28;20185;-80
2022/11/26 16:56:38;;;;;;;10.87;6.23;;;;;;;;;;5017214;28;20213;-79
2022/11/26 16:59:44;;;;;;;8.93;5.77;;;;;;;;;;4994517;28;20186;-79
2022/11/26 17:02:49;;;;;;;11.13;6.40;;;;;;;;;;4994378;28;20189;-80
2022/11/26 17:05:57;;;;;;;10.43;6.17;;;;;;;;;;5005394;28;20174;-80
2022/11/26 17:09:01;;;;;;;14.27;6.33;;;;;;;;;;5004955;28;20517;-79
2022/11/26 17:12:18;;;;;;;8.80;6.23;;;;;;;;;;5017088;28;20212;-79
2022/11/26 17:15:23;;;;;;;11.70;6.73;;;;;;;;;;4982668;28;20206;-79
2022/11/26 17:18:27;;;;;;;12.27;6.50;;;;;;;;;;4994446;28;20165;-79
2022/11/26 17:21:31;;;;;;;18.43;6.47;;;;;;;;;;4994152;28;20557;-78
2022/11/26 17:24:36;;;;;;;11.63;6.10;;;;;;;;;;4994302;28;20515;-80
2022/11/26 17:27:41;;;;;;;17.97;6.67;;;;;;;;;;4997240;28;20201;-78
2022/11/26 17:30:46;;;;;;;10.30;6.57;;;;;;;;;;4974434;28;20226;-78
2022/11/26 17:33:50;;;;;;;13.33;6.97;;;;;;;;;;4963286;28;20549;-79
2022/11/26 17:36:58;;;;;;;12.87;6.43;;;;;;;;;;4985592;28;20213;-79
2022/11/26 17:40:05;;;;;;;10.33;6.07;;;;;;;;;;4978436;28;20209;-79
2022/11/26 17:43:10;;;;;;;11.77;6.43;;;;;;;;;;5005463;28;20652;-79
2022/11/26 17:46:18;;;;;;;15.27;7.10;;;;;;;;;;4994211;28;20178;-80
2022/11/26 17:49:22;;;;;;;15.57;6.60;;;;;;;;;;4994231;28;20628;-79
2022/11/26 17:52:26;;;;;;;11.70;7.03;;;;;;;;;;5005076;28;20209;-80
2022/11/26 17:55:30;;;;;;;8.77;6.30;;;;;;;;;;4983331;28;20193;-80
2022/11/26 17:58:34;;;;;;;12.03;6.73;;;;;;;;;;4993767;28;20197;-80
2022/11/26 18:01:38;;;;;;;15.17;7.57;;;;;;;;;;4982941;28;20224;-78
2022/11/26 18:04:42;;;;;;;10.83;7.40;;;;;;;;;;4994003;28;20186;-80
2022/11/26 18:07:48;;;;;;;14.00;8.40;;;;;;;;;;4994329;28;20173;-79
2022/11/26 18:10:52;;;;;;;18.90;11.97;;;;;;;;;;4983655;28;20684;-80
2022/11/26 18:13:56;;;;;;;16.50;11.80;;;;;;;;;;4984719;28;20624;-79
2022/11/26 18:17:02;;;;;;;16.43;10.80;;;;;;;;;;4998803;28;20213;-80
2022/11/26 18:20:07;;;;;;;16.37;10.70;;;;;;;;;;4999184;28;20177;-79
2022/11/26 18:23:11;;;;;;;20.30;14.40;;;;;;;;;;5007984;28;20197;-79
2022/11/26 18:26:16;;;;;;;27.10;17.87;;;;;;;;;;4979594;28;20178;-80
2022/11/26 18:29:22;;;;;;;23.93;16.73;;;;;;;;;;4988172;28;20197;-79
2022/11/26 18:32:26;;;;;;;21.60;15.43;;;;;;;;;;4967423;28;20209;-80
2022/11/26 18:35:30;;;;;;;27.43;17.50;;;;;;;;;;4989827;28;20178;-78
2022/11/26 18:38:36;;;;;;;25.47;16.30;;;;;;;;;;4967003;28;20167;-79
2022/11/26 18:41:41;;;;;;;25.07;12.40;;;;;;;;;;4966914;28;20218;-79
2022/11/26 18:44:46;;;;;;;17.17;11.00;;;;;;;;;;4977157;28;20202;-80
2022/11/26 18:47:49;;;;;;;17.83;9.63;;;;;;;;;;4988686;28;20538;-79
2022/11/26 18:50:58;;;;;;;16.03;9.77;;;;;;;;;;4988837;28;20218;-80
2022/11/26 18:54:02;;;;;;;21.47;12.17;;;;;;;;;;4977444;28;20626;-79
2022/11/26 18:57:06;;;;;;;32.80;15.77;;;;;;;;;;4988855;28;20222;-79
2022/11/26 19:00:12;;;;;;;32.63;16.70;;;;;;;;;;4977322;28;20541;-79
2022/11/26 19:03:17;;;;;;;29.73;15.37;;;;;;;;;;4978522;28;20182;-79
2022/11/26 19:06:26;;;;;;;24.57;13.63;;;;;;;;;;4978482;28;20625;-78